Time;durP1;ratioP1;P1;durP2;ratioP2;P2;SDS_P1;SDS_P2;PMS_P1;PMS_P2;Temp;Humidity;BMP_temperature;BMP_pressure;BME280_temperature;BME280_humidity;BME280_pressure;Samples;Min_cycle;Max_cycle;Signal;HPM_P1;HPM_P2
2023/01/20 00:01:22;;;;;;;3.95;2.42;;;2.20;99.90;;;;;;5075210;28;20119;-40
2023/01/20 00:03:49;;;;;;;6.15;3.00;;;2.20;99.90;;;;;;5072677;28;20486;-41
2023/01/20 00:06:15;;;;;;;7.55;3.38;;;2.20;99.90;;;;;;5069509;28;20400;-42
2023/01/20 00:08:41;;;;;;;7.53;3.42;;;2.20;99.90;;;;;;5073871;28;20041;-42
2023/01/20 00:11:11;;;;;;;3.80;2.70;;;2.30;99.90;;;;;;5069815;28;20031;-45
2023/01/20 00:13:38;;;;;;;5.40;3.30;;;2.30;99.90;;;;;;5068528;28;20481;-40
2023/01/20 00:16:06;;;;;;;8.90;3.50;;;2.30;99.90;;;;;;5071824;28;20070;-43
2023/01/20 00:18:33;;;;;;;5.22;2.90;;;2.30;99.90;;;;;;5070337;28;20491;-49
2023/01/20 00:21:10;;;;;;;6.57;4.30;;;2.30;99.90;;;;;;5074214;28;20051;-48
2023/01/20 00:23:37;;;;;;;5.90;3.67;;;2.20;99.90;;;;;;5068941;28;20019;-37
2023/01/20 00:26:07;;;;;;;6.93;4.18;;;2.20;99.90;;;;;;5068184;28;20024;-41
2023/01/20 00:28:34;;;;;;;10.45;4.30;;;2.30;99.90;;;;;;5068026;28;20028;-37
2023/01/20 00:31:21;;;;;;;7.90;4.93;;;2.30;99.90;;;;;;5068069;28;20111;-39
2023/01/20 00:33:48;;;;;;;9.05;4.38;;;2.20;99.90;;;;;;5067267;28;20029;-43
2023/01/20 00:36:16;;;;;;;11.55;5.68;;;2.20;99.90;;;;;;5072503;28;20122;-39
2023/01/20 00:38:41;;;;;;;9.10;5.22;;;2.10;99.90;;;;;;5087668;28;20072;-42
2023/01/20 00:41:08;;;;;;;12.05;5.28;;;2.10;99.90;;;;;;5070417;28;20028;-40
2023/01/20 00:43:34;;;;;;;13.63;6.88;;;2.10;99.90;;;;;;5069928;28;20044;-41
2023/01/20 00:46:00;;;;;;;8.85;5.28;;;2.00;99.90;;;;;;5065165;28;20121;-35
2023/01/20 00:48:26;;;;;;;11.82;6.00;;;2.00;99.90;;;;;;5070225;28;20141;-40
2023/01/20 00:50:51;;;;;;;10.40;5.85;;;1.90;99.90;;;;;;5072695;28;20516;-37
2023/01/20 00:56:01;;;;;;;13.55;6.35;;;1.90;99.90;;;;;;5059505;28;20059;-39
2023/01/20 00:58:27;;;;;;;14.48;6.32;;;1.80;99.90;;;;;;5072622;28;20107;-37
2023/01/20 01:00:54;;;;;;;10.95;6.15;;;1.90;99.90;;;;;;5072839;28;20024;-41
2023/01/20 01:03:20;;;;;;;10.80;5.43;;;1.90;99.90;;;;;;5074110;28;20025;-41
2023/01/20 01:05:46;;;;;;;13.07;7.13;;;2.00;99.90;;;;;;5073795;28;20081;-41
2023/01/20 01:08:12;;;;;;;14.32;6.93;;;2.00;99.90;;;;;;5074143;28;20469;-44
2023/01/20 01:10:37;;;;;;;14.60;7.00;;;2.10;99.90;;;;;;5072797;28;20072;-43
2023/01/20 01:13:21;;;;;;;17.60;7.07;;;2.10;99.90;;;;;;5074506;28;20059;-41
2023/01/20 01:15:48;;;;;;;13.95;7.53;;;2.20;99.90;;;;;;5072317;28;20044;-44
2023/01/20 01:18:14;;;;;;;22.27;7.90;;;2.20;99.90;;;;;;5073157;28;20543;-42
2023/01/20 01:20:40;;;;;;;15.27;8.52;;;2.20;99.90;;;;;;5073415;28;20029;-40
2023/01/20 01:23:05;;;;;;;20.70;8.18;;;2.20;99.90;;;;;;5073824;28;20413;-38
2023/01/20 01:25:31;;;;;;;22.10;8.48;;;2.30;99.90;;;;;;5073464;28;20358;-37
2023/01/20 01:27:56;;;;;;;16.92;8.43;;;2.30;99.90;;;;;;5070777;28;20029;-44
2023/01/20 01:30:22;;;;;;;18.52;8.73;;;2.30;99.90;;;;;;5072582;28;20548;-41
2023/01/20 01:32:47;;;;;;;28.00;10.60;;;2.30;99.90;;;;;;5073510;28;20031;-45
2023/01/20 01:35:13;;;;;;;29.23;12.43;;;2.40;99.90;;;;;;5073058;28;20408;-42
2023/01/20 01:37:39;;;;;;;21.05;10.30;;;2.30;99.90;;;;;;5073184;28;20032;-39
2023/01/20 01:40:05;;;;;;;27.20;9.68;;;2.30;99.90;;;;;;5074131;28;20052;-39
2023/01/20 01:42:31;;;;;;;24.95;10.65;;;2.30;99.90;;;;;;5071797;28;20544;-36
2023/01/20 01:45:11;;;;;;;24.98;11.43;;;2.30;99.90;;;;;;5073217;28;20024;-41
2023/01/20 01:47:44;;;;;;;19.58;9.18;;;2.20;99.90;;;;;;5073009;28;20031;-40
2023/01/20 01:50:19;;;;;;;22.88;10.48;;;2.10;99.90;;;;;;5071052;28;20447;-37
2023/01/20 01:52:49;;;;;;;18.52;8.70;;;2.10;99.90;;;;;;5072208;28;20036;-40
2023/01/20 01:55:17;;;;;;;22.40;9.98;;;2.10;99.90;;;;;;5071115;28;20037;-39
2023/01/20 01:57:43;;;;;;;21.73;8.45;;;2.00;99.90;;;;;;5072182;28;20508;-39
2023/01/20 02:00:09;;;;;;;20.00;9.40;;;2.00;99.90;;;;;;5072044;28;20068;-37
2023/01/20 02:02:35;;;;;;;25.17;10.20;;;2.00;99.90;;;;;;5072245;28;20059;-38
2023/01/20 02:05:01;;;;;;;17.90;9.18;;;2.00;99.90;;;;;;5071068;28;20507;-38
2023/01/20 02:07:27;;;;;;;20.08;8.80;;;2.00;99.90;;;;;;5072972;28;20100;-41
2023/01/20 02:09:53;;;;;;;21.65;9.50;;;2.00;99.90;;;;;;5072934;28;20541;-41
2023/01/20 02:12:21;;;;;;;17.65;9.43;;;1.90;99.90;;;;;;5072729;28;20024;-42
2023/01/20 02:14:49;;;;;;;16.63;9.20;;;1.80;99.90;;;;;;5071219;28;20020;-39
2023/01/20 02:17:33;;;;;;;20.73;8.75;;;1.80;99.90;;;;;;5071052;28;20484;-40
2023/01/20 02:20:35;;;;;;;22.30;9.57;;;1.80;99.90;;;;;;5041208;28;20511;-36
2023/01/20 02:23:33;;;;;;;24.38;9.55;;;1.70;99.90;;;;;;5072688;28;20049;-35
2023/01/20 02:26:13;;;;;;;24.17;9.55;;;1.80;99.90;;;;;;5055812;28;20459;-39
2023/01/20 02:29:02;;;;;;;22.42;10.27;;;1.80;99.90;;;;;;5069279;28;20461;-36
2023/01/20 02:31:46;;;;;;;26.55;10.93;;;1.70;99.90;;;;;;5063487;28;20029;-40
2023/01/20 02:34:18;;;;;;;28.58;10.43;;;1.80;99.90;;;;;;5062476;28;20025;-39
2023/01/20 02:37:11;;;;;;;32.58;11.23;;;1.70;99.90;;;;;;5068177;28;20460;-40
2023/01/20 02:40:07;;;;;;;28.27;10.43;;;1.70;99.90;;;;;;5054225;28;20044;-41
2023/01/20 02:42:41;;;;;;;23.92;10.27;;;1.70;99.90;;;;;;5058141;28;20107;-42
2023/01/20 02:45:24;;;;;;;26.45;10.60;;;1.70;99.90;;;;;;5076059;28;20024;-36
2023/01/20 02:48:01;;;;;;;24.00;10.32;;;1.70;99.90;;;;;;5073636;28;20104;-35
2023/01/20 02:51:08;;;;;;;29.73;11.55;;;1.70;99.90;;;;;;5075937;28;20052;-38
2023/01/20 02:54:02;;;;;;;24.63;10.93;;;1.70;99.90;;;;;;5060422;28;20146;-34
2023/01/20 02:56:30;;;;;;;26.73;11.52;;;1.60;99.90;;;;;;5069263;28;20049;-37
2023/01/20 02:59:20;;;;;;;23.90;10.35;;;1.70;99.90;;;;;;5073848;28;20477;-39
2023/01/20 03:02:01;;;;;;;36.00;11.73;;;1.60;99.90;;;;;;5074689;28;20020;-39
2023/01/20 03:04:34;;;;;;;33.28;11.40;;;1.60;99.90;;;;;;5072862;28;20476;-33
2023/01/20 03:07:02;;;;;;;31.15;11.20;;;1.60;99.90;;;;;;5074200;28;20067;-38
2023/01/20 03:09:40;;;;;;;38.88;12.48;;;1.60;99.90;;;;;;5075189;28;20020;-37
2023/01/20 03:12:23;;;;;;;25.05;11.55;;;1.60;99.90;;;;;;5074522;28;20111;-39
2023/01/20 03:14:50;;;;;;;43.03;13.75;;;1.70;99.90;;;;;;5075085;28;20058;-42
2023/01/20 03:17:17;;;;;;;28.45;11.63;;;1.70;99.90;;;;;;5075101;28;20029;-41
2023/01/20 03:19:43;;;;;;;36.17;11.98;;;1.80;99.90;;;;;;5075787;28;20031;-40
2023/01/20 03:22:08;;;;;;;37.03;12.82;;;1.80;99.90;;;;;;5075896;28;20020;-41
2023/01/20 03:24:36;;;;;;;33.20;12.85;;;1.80;99.90;;;;;;5075925;28;20020;-37
2023/01/20 03:27:02;;;;;;;33.85;13.32;;;1.80;99.90;;;;;;5075162;28;20468;-37
2023/01/20 03:29:29;;;;;;;35.20;13.07;;;1.70;99.90;;;;;;5074887;28;20480;-36
2023/01/20 03:31:58;;;;;;;27.70;11.20;;;1.70;99.90;;;;;;5073272;28;20029;-37
2023/01/20 03:34:26;;;;;;;32.83;14.07;;;1.80;99.90;;;;;;5075581;28;20028;-40
2023/01/20 03:36:53;;;;;;;31.20;12.43;;;1.80;99.90;;;;;;5075501;28;20067;-40
2023/01/20 03:39:20;;;;;;;33.40;11.90;;;1.70;99.90;;;;;;5075881;28;20480;-40
2023/01/20 03:42:08;;;;;;;40.38;12.35;;;1.70;99.90;;;;;;5074740;28;20020;-41
2023/01/20 03:44:42;;;;;;;32.55;13.10;;;1.70;99.90;;;;;;5065545;28;20099;-41
2023/01/20 03:47:51;;;;;;;36.17;12.60;;;1.70;99.90;;;;;;5074406;28;20029;-41
2023/01/20 03:50:43;;;;;;;36.22;11.48;;;1.80;99.90;;;;;;5055211;28;20544;-41
2023/01/20 03:53:29;;;;;;;36.08;12.43;;;1.80;99.90;;;;;;5065432;28;20035;-39
2023/01/20 03:56:30;;;;;;;29.52;11.60;;;1.70;99.90;;;;;;5074502;28;20476;-38
2023/01/20 03:59:00;;;;;;;34.00;12.45;;;1.80;99.90;;;;;;5062135;28;20518;-36
2023/01/20 04:01:37;;;;;;;29.02;12.57;;;1.70;99.90;;;;;;5073931;28;20025;-38
2023/01/20 04:04:07;;;;;;;27.63;9.47;;;1.70;99.90;;;;;;5073858;28;20444;-38
2023/01/20 04:06:33;;;;;;;35.08;11.57;;;1.70;99.90;;;;;;5074115;28;20419;-38
2023/01/20 04:09:23;;;;;;;29.77;13.32;;;1.70;99.90;;;;;;5073469;28;20024;-39
2023/01/20 04:11:49;;;;;;;34.03;12.38;;;1.70;99.90;;;;;;5071476;28;20041;-31
2023/01/20 04:14:15;;;;;;;33.22;11.75;;;1.70;99.90;;;;;;5072812;28;20504;-36
2023/01/20 04:16:41;;;;;;;39.17;13.43;;;1.70;99.90;;;;;;5074135;28;20039;-39
2023/01/20 04:19:06;;;;;;;35.88;12.80;;;1.70;99.90;;;;;;5072877;28;20048;-43
2023/01/20 04:21:37;;;;;;;33.38;12.07;;;1.70;99.90;;;;;;5074261;28;20048;-42
2023/01/20 04:24:19;;;;;;;35.58;13.07;;;1.80;99.90;;;;;;5072454;28;20016;-43
2023/01/20 04:26:45;;;;;;;32.72;12.50;;;1.80;99.90;;;;;;5066991;28;20032;-43
2023/01/20 04:29:11;;;;;;;36.05;13.18;;;1.90;99.90;;;;;;5072597;28;20046;-43
2023/01/20 04:31:36;;;;;;;34.35;12.15;;;1.90;99.90;;;;;;5073576;28;20372;-39
2023/01/20 04:34:03;;;;;;;45.67;13.88;;;1.90;99.90;;;;;;5069208;28;20020;-38
2023/01/20 04:36:29;;;;;;;30.20;13.25;;;1.90;99.90;;;;;;5074111;28;20469;-34
2023/01/20 04:38:55;;;;;;;46.95;15.73;;;2.00;99.90;;;;;;5073150;28;20025;-39
2023/01/20 04:41:21;;;;;;;38.97;14.05;;;2.00;99.90;;;;;;5072637;28;20056;-40
2023/01/20 04:43:46;;;;;;;40.75;14.80;;;2.00;99.90;;;;;;5069791;28;20036;-40
2023/01/20 04:46:14;;;;;;;41.53;16.02;;;2.00;99.90;;;;;;5072915;28;20025;-37
2023/01/20 04:48:40;;;;;;;42.55;14.07;;;2.00;99.90;;;;;;5071480;28;20538;-37
2023/01/20 04:51:06;;;;;;;40.92;15.15;;;2.10;99.90;;;;;;5072564;28;20392;-36
2023/01/20 04:53:32;;;;;;;45.78;15.77;;;2.10;99.90;;;;;;5072300;28;20503;-40
2023/01/20 04:55:58;;;;;;;45.95;14.70;;;2.10;99.90;;;;;;5071122;28;20029;-39
2023/01/20 04:58:23;;;;;;;40.55;14.43;;;2.10;99.90;;;;;;5072780;28;20548;-39
2023/01/20 05:00:49;;;;;;;31.25;13.25;;;2.10;99.90;;;;;;5073007;28;20388;-38
2023/01/20 05:03:15;;;;;;;42.17;15.98;;;2.10;99.90;;;;;;5071648;28;20098;-39
2023/01/20 05:05:40;;;;;;;47.92;15.85;;;2.10;99.90;;;;;;5071955;28;20028;-37
2023/01/20 05:08:06;;;;;;;38.85;16.83;;;2.10;99.90;;;;;;5073854;28;20024;-39
2023/01/20 05:10:32;;;;;;;59.33;16.40;;;2.00;99.90;;;;;;5074060;28;20370;-39
2023/01/20 05:12:58;;;;;;;48.90;17.42;;;2.00;99.90;;;;;;5071618;28;20032;-40
2023/01/20 05:15:24;;;;;;;46.22;15.35;;;2.00;99.90;;;;;;5073202;28;20028;-39
2023/01/20 05:17:50;;;;;;;59.95;18.58;;;2.10;99.90;;;;;;5072805;28;20488;-35
2023/01/20 05:20:17;;;;;;;50.50;16.17;;;2.00;99.90;;;;;;5073813;28;20598;-41
2023/01/20 05:22:43;;;;;;;42.90;15.93;;;2.00;99.90;;;;;;5071597;28;20111;-41
2023/01/20 05:25:09;;;;;;;54.78;17.48;;;2.00;99.90;;;;;;5073594;28;20492;-42
2023/01/20 05:27:35;;;;;;;56.05;17.52;;;2.00;99.90;;;;;;5072813;28;20029;-43
2023/01/20 05:30:05;;;;;;;53.25;17.48;;;2.00;99.90;;;;;;5072830;28;20067;-39
2023/01/20 05:32:31;;;;;;;56.97;18.45;;;2.00;99.90;;;;;;5070993;28;20029;-43
2023/01/20 05:34:57;;;;;;;42.22;15.43;;;2.00;99.90;;;;;;5073598;28;20025;-40
2023/01/20 05:37:22;;;;;;;47.42;16.88;;;2.00;99.90;;;;;;5073233;28;20054;-40
2023/01/20 05:39:48;;;;;;;54.90;17.02;;;2.00;99.90;;;;;;5073492;28;20452;-44
2023/01/20 05:42:14;;;;;;;45.70;16.50;;;2.00;99.90;;;;;;5072738;28;20502;-44
2023/01/20 05:44:40;;;;;;;47.42;16.33;;;2.00;99.90;;;;;;5073351;28;20495;-43
2023/01/20 05:47:06;;;;;;;59.17;19.58;;;1.90;99.90;;;;;;5070784;28;20021;-41
2023/01/20 05:52:15;;;;;;;66.47;18.08;;;1.90;99.90;;;;;;5072689;28;20583;-43
2023/01/20 05:54:41;;;;;;;60.08;16.95;;;1.90;99.90;;;;;;5072958;28;20028;-43
2023/01/20 05:57:10;;;;;;;57.47;17.77;;;1.90;99.90;;;;;;5070904;28;20452;-39
2023/01/20 05:59:35;;;;;;;51.50;16.52;;;1.90;99.90;;;;;;5071947;28;20032;-39
2023/01/20 06:02:01;;;;;;;69.70;19.13;;;1.90;99.90;;;;;;5071139;28;20112;-38
2023/01/20 06:04:27;;;;;;;56.00;16.52;;;1.90;99.90;;;;;;5072611;28;20471;-38
2023/01/20 06:06:53;;;;;;;58.45;18.73;;;1.90;99.90;;;;;;5071708;28;20077;-39
2023/01/20 06:09:18;;;;;;;59.28;17.15;;;1.90;99.90;;;;;;5072063;28;20028;-37
2023/01/20 06:11:44;;;;;;;58.80;17.88;;;1.90;99.90;;;;;;5072330;28;20509;-37
2023/01/20 06:14:09;;;;;;;59.60;18.83;;;1.90;99.90;;;;;;5073023;28;20024;-37
2023/01/20 06:16:35;;;;;;;53.70;17.38;;;1.90;99.90;;;;;;5071963;28;20362;-37
2023/01/20 06:19:00;;;;;;;48.05;15.98;;;1.80;99.90;;;;;;5071149;28;20074;-37
2023/01/20 06:21:26;;;;;;;60.35;17.90;;;1.80;99.90;;;;;;5072799;28;20492;-37
2023/01/20 06:23:53;;;;;;;46.90;16.40;;;1.80;99.90;;;;;;5071058;28;20021;-37
2023/01/20 06:26:19;;;;;;;58.40;17.42;;;1.80;99.90;;;;;;5072712;28;20033;-40
2023/01/20 06:28:44;;;;;;;57.00;16.92;;;1.80;99.90;;;;;;5072595;28;20037;-41
2023/01/20 06:31:12;;;;;;;57.50;18.15;;;1.80;99.90;;;;;;5071111;28;20094;-42
2023/01/20 06:33:38;;;;;;;;;;;1.80;99.90;;;;;;5053060;28;20044;-41
2023/01/20 06:36:05;;;;;;;43.55;16.67;;;1.80;99.90;;;;;;5052578;28;20356;-41
2023/01/20 06:38:33;;;;;;;53.03;15.90;;;1.90;99.90;;;;;;5055679;28;20107;-44
2023/01/20 06:41:01;;;;;;;52.42;17.60;;;1.90;99.90;;;;;;5068262;28;20021;-38
2023/01/20 06:43:32;;;;;;;63.55;20.02;;;1.90;99.90;;;;;;5061733;28;20052;-39
2023/01/20 06:45:59;;;;;;;50.03;16.25;;;1.90;99.90;;;;;;5061589;28;20028;-36
2023/01/20 06:48:25;;;;;;;54.80;18.35;;;1.90;99.90;;;;;;5067270;28;20029;-38
2023/01/20 06:50:51;;;;;;;62.22;19.77;;;1.90;99.90;;;;;;5065555;28;20110;-38
2023/01/20 06:53:16;;;;;;;57.60;17.20;;;1.90;99.90;;;;;;5066113;28;20055;-37
2023/01/20 06:56:00;;;;;;;62.33;18.50;;;1.90;99.90;;;;;;5068615;28;20087;-39
2023/01/20 06:58:29;;;;;;;65.93;19.60;;;1.90;99.90;;;;;;5068836;28;20029;-40
2023/01/20 07:00:56;;;;;;;54.03;18.05;;;2.00;99.90;;;;;;5068949;28;20025;-39
2023/01/20 07:03:22;;;;;;;53.17;17.15;;;2.00;99.90;;;;;;5069942;28;20484;-37
2023/01/20 07:06:30;;;;;;;53.15;20.30;;;2.00;99.90;;;;;;5068981;28;20017;-38
2023/01/20 07:08:56;;;;;;;53.75;18.80;;;1.90;99.90;;;;;;5069013;28;20033;-39
2023/01/20 07:11:22;;;;;;;53.70;18.58;;;2.00;99.90;;;;;;5071155;28;20446;-39
2023/01/20 07:13:48;;;;;;;60.45;19.10;;;1.90;99.90;;;;;;5071674;28;20086;-36
2023/01/20 07:16:14;;;;;;;69.13;19.05;;;1.90;99.90;;;;;;5071835;28;20033;-39
2023/01/20 07:18:40;;;;;;;52.28;18.98;;;1.90;99.90;;;;;;5074673;28;20063;-40
2023/01/20 07:21:06;;;;;;;58.15;17.98;;;1.90;99.90;;;;;;5075043;28;20564;-40
2023/01/20 07:23:35;;;;;;;48.80;16.90;;;1.90;99.90;;;;;;5075871;28;20028;-39
2023/01/20 07:26:08;;;;;;;48.13;17.05;;;1.90;99.90;;;;;;5075853;28;20055;-40
2023/01/20 07:28:35;;;;;;;56.55;16.00;;;1.90;99.90;;;;;;5075898;28;20392;-38
2023/01/20 07:31:08;;;;;;;47.08;16.10;;;1.90;99.90;;;;;;5076256;28;20115;-39
2023/01/20 07:33:34;;;;;;;45.00;15.75;;;1.90;99.90;;;;;;5075095;28;20035;-39
2023/01/20 07:36:00;;;;;;;51.60;16.17;;;1.90;99.90;;;;;;5075789;28;20396;-36
2023/01/20 07:38:27;;;;;;;56.05;15.07;;;2.00;99.90;;;;;;5075118;28;20480;-37
2023/01/20 07:40:57;;;;;;;44.35;16.42;;;2.00;99.90;;;;;;5075573;28;20035;-39
2023/01/20 07:43:23;;;;;;;42.38;14.93;;;2.00;99.90;;;;;;5075837;28;20052;-37
2023/01/20 07:45:48;;;;;;;42.47;15.48;;;2.10;99.90;;;;;;5075477;28;20460;-39
2023/01/20 07:48:14;;;;;;;44.35;16.27;;;2.10;99.90;;;;;;5074377;28;20025;-39
2023/01/20 07:50:42;;;;;;;45.03;14.88;;;2.10;99.90;;;;;;5075434;28;20052;-38
2023/01/20 07:53:08;;;;;;;39.15;14.75;;;2.10;99.90;;;;;;5075544;28;20040;-37
2023/01/20 07:55:33;;;;;;;49.92;14.95;;;2.10;99.90;;;;;;5075151;28;20395;-38
2023/01/20 07:57:59;;;;;;;37.15;13.50;;;2.10;99.90;;;;;;5074596;28;20188;-40
2023/01/20 08:00:25;;;;;;;43.47;15.02;;;2.10;99.90;;;;;;5075184;28;20032;-40
2023/01/20 08:02:51;;;;;;;39.78;14.82;;;2.20;99.90;;;;;;5073032;28;20020;-37
2023/01/20 08:05:16;;;;;;;48.47;14.63;;;2.10;99.90;;;;;;5075089;28;20484;-38
2023/01/20 08:07:42;;;;;;;38.17;13.02;;;2.10;99.90;;;;;;5075332;28;20020;-35
2023/01/20 08:10:08;;;;;;;36.97;13.52;;;2.20;99.90;;;;;;5075287;28;20032;-38
2023/01/20 08:12:33;;;;;;;42.33;14.85;;;2.20;99.90;;;;;;5074880;28;20040;-41
2023/01/20 08:14:59;;;;;;;37.55;14.18;;;2.10;99.90;;;;;;5074996;28;20506;-42
2023/01/20 08:17:24;;;;;;;35.78;13.50;;;2.10;99.90;;;;;;5073658;28;20024;-43
2023/01/20 08:19:50;;;;;;;38.05;15.60;;;2.20;99.90;;;;;;5075025;28;20029;-42
2023/01/20 08:22:16;;;;;;;38.80;14.05;;;2.20;99.90;;;;;;5074905;28;20029;-41
2023/01/20 08:24:41;;;;;;;37.53;14.13;;;2.20;99.90;;;;;;5074791;28;20488;-41
2023/01/20 08:27:07;;;;;;;42.53;15.13;;;2.10;99.90;;;;;;5074503;28;20485;-40
2023/01/20 08:29:33;;;;;;;36.15;14.00;;;2.10;99.90;;;;;;5074738;28;20028;-42
2023/01/20 08:31:59;;;;;;;33.50;14.10;;;2.10;99.90;;;;;;5074017;28;20421;-42
2023/01/20 08:34:26;;;;;;;35.45;13.32;;;2.20;99.90;;;;;;5074659;28;20095;-41
2023/01/20 08:36:53;;;;;;;29.85;12.07;;;2.20;99.90;;;;;;5074542;28;20033;-42
2023/01/20 08:39:19;;;;;;;31.35;12.20;;;2.20;99.90;;;;;;5073990;28;20028;-40
2023/01/20 08:41:46;;;;;;;32.13;13.18;;;2.20;99.90;;;;;;5074481;28;20028;-42
2023/01/20 08:44:13;;;;;;;34.65;13.55;;;2.30;99.90;;;;;;5074791;28;20511;-40
2023/01/20 08:46:39;;;;;;;32.75;13.82;;;2.30;99.90;;;;;;5071730;28;20051;-42
2023/01/20 08:49:10;;;;;;;31.05;11.75;;;2.20;99.90;;;;;;5074144;28;20066;-41
2023/01/20 08:51:36;;;;;;;34.67;12.30;;;2.30;99.90;;;;;;5074143;28;20045;-42
2023/01/20 08:54:02;;;;;;;31.52;12.85;;;2.30;99.90;;;;;;5072934;28;20028;-41
2023/01/20 08:56:28;;;;;;;30.02;13.45;;;2.30;99.90;;;;;;5073289;28;20416;-41
2023/01/20 08:58:56;;;;;;;32.42;12.60;;;2.30;99.90;;;;;;5074177;28;20430;-40
2023/01/20 09:01:27;;;;;;;33.00;13.25;;;2.30;99.90;;;;;;5074108;28;20396;-38
2023/01/20 09:03:54;;;;;;;40.72;13.40;;;2.20;99.90;;;;;;5073082;28;20384;-38
2023/01/20 09:06:20;;;;;;;30.50;12.25;;;2.30;99.90;;;;;;5072801;28;20524;-37
2023/01/20 09:08:53;;;;;;;33.13;11.90;;;2.30;99.90;;;;;;5073923;28;20025;-35
2023/01/20 09:11:21;;;;;;;25.80;12.52;;;2.30;99.90;;;;;;5073835;28;20032;-36
2023/01/20 09:13:47;;;;;;;32.03;12.80;;;2.30;99.90;;;;;;5074084;28;20502;-37
2023/01/20 09:16:15;;;;;;;33.88;12.25;;;2.40;99.90;;;;;;5071845;28;20537;-40
2023/01/20 09:18:41;;;;;;;;;;;2.40;99.90;;;;;;5073149;28;20024;-41
2023/01/20 09:21:08;;;;;;;26.85;11.27;;;2.40;99.90;;;;;;5073561;28;19995;-42
2023/01/20 09:23:36;;;;;;;32.97;11.68;;;2.40;99.90;;;;;;5072435;28;20020;-39
2023/01/20 09:26:03;;;;;;;35.92;13.27;;;2.40;99.90;;;;;;5073591;28;20035;-35
2023/01/20 09:28:29;;;;;;;28.13;12.60;;;2.30;99.90;;;;;;5072031;28;20416;-39
2023/01/20 09:31:04;;;;;;;29.23;10.80;;;2.40;99.90;;;;;;5072185;28;20025;-39
2023/01/20 09:33:31;;;;;;;26.52;11.57;;;2.40;99.90;;;;;;5072905;28;20093;-38
2023/01/20 09:35:58;;;;;;;30.45;11.10;;;2.30;99.90;;;;;;5073313;28;20089;-36
2023/01/20 09:44:24;;;;;;;28.23;11.23;;;2.20;99.90;;;;;;5072153;28;20459;-39
2023/01/20 09:47:23;;;;;;;26.77;10.55;;;2.20;99.90;;;;;;5073038;28;20103;-39
2023/01/20 09:53:00;;;;;;;29.70;11.57;;;2.10;99.90;;;;;;5073411;28;20048;-39
2023/01/20 09:55:28;;;;;;;25.38;10.55;;;2.10;99.90;;;;;;5073126;28;20027;-35
2023/01/20 09:58:03;;;;;;;21.95;9.68;;;2.10;99.90;;;;;;5073168;28;20111;-38
2023/01/20 10:00:33;;;;;;;23.75;10.68;;;2.10;99.90;;;;;;5072201;28;20020;-38
2023/01/20 10:03:13;;;;;;;19.15;9.85;;;2.10;99.90;;;;;;5087091;28;20104;-37
2023/01/20 10:05:41;;;;;;;18.80;10.30;;;2.10;99.90;;;;;;5053017;28;20127;-36
2023/01/20 10:08:15;;;;;;;20.63;8.57;;;2.10;99.90;;;;;;5051740;28;20029;-35
2023/01/20 10:10:51;;;;;;;22.20;8.93;;;2.10;99.90;;;;;;5052891;28;20401;-35
2023/01/20 10:13:31;;;;;;;17.77;8.55;;;2.10;99.90;;;;;;5052836;28;20068;-49
2023/01/20 10:15:59;;;;;;;20.13;9.02;;;2.10;99.90;;;;;;5052740;28;20033;-39
2023/01/20 10:18:50;;;;;;;20.60;8.10;;;2.10;99.90;;;;;;5054648;28;20025;-40
2023/01/20 10:21:27;;;;;;;18.13;8.10;;;2.00;99.90;;;;;;5072793;28;20029;-40
2023/01/20 10:23:57;;;;;;;18.60;8.38;;;2.10;99.90;;;;;;5071719;28;20032;-40
2023/01/20 10:26:47;;;;;;;17.70;7.97;;;2.10;99.90;;;;;;5072866;28;20036;-40
2023/01/20 10:29:20;;;;;;;18.10;7.68;;;2.00;99.90;;;;;;5073088;28;20123;-40
2023/01/20 10:31:59;;;;;;;17.45;8.02;;;2.00;99.90;;;;;;5072790;28;20029;-41
2023/01/20 10:34:52;;;;;;;14.32;7.80;;;2.10;99.90;;;;;;5070399;28;20480;-40
2023/01/20 10:37:18;;;;;;;12.93;6.22;;;2.10;99.90;;;;;;5066262;28;20087;-43
2023/01/20 10:40:14;;;;;;;15.40;7.40;;;2.10;99.90;;;;;;5072884;28;20021;-42
2023/01/20 10:42:41;;;;;;;14.00;7.00;;;2.20;99.90;;;;;;5052565;28;20098;-37
2023/01/20 10:45:41;;;;;;;15.30;6.90;;;2.20;99.90;;;;;;5051146;28;20451;-42
2023/01/20 10:48:34;;;;;;;10.95;6.72;;;2.20;99.90;;;;;;5056137;28;20443;-34
2023/01/20 10:51:09;;;;;;;13.45;6.28;;;2.20;99.90;;;;;;5073823;28;20504;-36
2023/01/20 10:54:00;;;;;;;18.25;7.80;;;2.20;99.90;;;;;;5075863;28;20092;-39
2023/01/20 10:56:41;;;;;;;11.68;6.30;;;2.20;99.90;;;;;;5076318;28;20035;-40
2023/01/20 10:59:20;;;;;;;13.75;6.93;;;2.20;99.90;;;;;;5076776;28;20054;-41
2023/01/20 11:01:51;;;;;;;16.23;7.55;;;2.20;99.90;;;;;;5076691;28;20544;-39
2023/01/20 11:04:19;;;;;;;14.43;6.53;;;2.20;99.90;;;;;;5075499;28;20488;-37
2023/01/20 11:06:49;;;;;;;11.80;5.85;;;2.20;99.90;;;;;;5076515;28;20557;-38
2023/01/20 11:09:28;;;;;;;16.15;6.63;;;2.20;99.90;;;;;;5076241;28;20089;-42
2023/01/20 11:11:55;;;;;;;13.45;6.80;;;2.20;99.90;;;;;;5075829;28;20040;-37
2023/01/20 11:14:21;;;;;;;14.43;6.63;;;2.10;99.90;;;;;;5075931;28;20090;-36
2023/01/20 11:16:53;;;;;;;12.18;6.22;;;2.20;99.90;;;;;;5075938;28;20024;-39
2023/01/20 11:19:19;;;;;;;14.70;6.15;;;2.20;99.90;;;;;;5075097;28;20021;-35
2023/01/20 11:21:46;;;;;;;11.88;5.75;;;2.20;99.90;;;;;;5074376;28;20401;-41
2023/01/20 11:24:40;;;;;;;12.50;6.55;;;2.20;99.90;;;;;;5074373;28;20020;-40
2023/01/20 11:27:13;;;;;;;15.07;5.90;;;2.30;99.90;;;;;;5075871;28;20032;-37
2023/01/20 11:29:42;;;;;;;9.60;4.68;;;2.40;99.90;;;;;;5074714;28;20104;-37
2023/01/20 11:32:43;;;;;;;12.20;5.97;;;2.40;99.90;;;;;;5076216;28;20029;-40
2023/01/20 11:35:24;;;;;;;8.65;5.10;;;2.40;99.90;;;;;;4993120;28;20049;-40
2023/01/20 11:37:51;;;;;;;10.23;5.35;;;2.40;99.90;;;;;;5067801;28;20443;-40
2023/01/20 11:40:23;;;;;;;12.10;5.68;;;2.40;99.90;;;;;;5074646;28;20025;-37
2023/01/20 11:42:50;;;;;;;10.65;5.68;;;2.40;99.90;;;;;;5075879;28;20071;-39
2023/01/20 11:45:35;;;;;;;9.02;5.97;;;2.40;99.90;;;;;;5075823;28;20503;-38
2023/01/20 11:48:13;;;;;;;13.30;5.25;;;2.40;99.90;;;;;;5075374;28;20029;-40
2023/01/20 11:50:45;;;;;;;10.13;5.05;;;2.40;99.90;;;;;;5074551;28;20056;-39
2023/01/20 11:53:12;;;;;;;8.52;4.68;;;2.40;99.90;;;;;;5075443;28;20046;-37
2023/01/20 11:55:49;;;;;;;7.72;4.95;;;2.50;99.90;;;;;;5075243;28;20392;-40
2023/01/20 11:58:21;;;;;;;14.20;5.88;;;2.50;99.90;;;;;;5074483;28;20506;-38
2023/01/20 12:00:57;;;;;;;8.18;4.75;;;2.50;99.90;;;;;;5075356;28;20053;-38
2023/01/20 12:03:53;;;;;;;14.23;4.68;;;2.50;99.90;;;;;;5074840;28;20507;-35
2023/01/20 12:06:26;;;;;;;9.13;4.50;;;2.60;99.90;;;;;;5074397;28;20036;-40
2023/01/20 12:09:03;;;;;;;9.07;4.78;;;2.60;99.90;;;;;;5075472;28;20485;-40
2023/01/20 12:11:59;;;;;;;12.10;5.40;;;2.50;99.90;;;;;;5075256;28;20442;-39
2023/01/20 12:14:43;;;;;;;7.18;4.25;;;2.50;99.90;;;;;;5075052;28;20025;-38
2023/01/20 12:17:26;;;;;;;9.35;5.25;;;2.50;99.90;;;;;;5074030;28;20392;-37
2023/01/20 12:20:05;;;;;;;8.77;4.85;;;2.50;99.90;;;;;;5074999;28;20025;-40
2023/01/20 12:22:46;;;;;;;11.35;5.38;;;2.50;99.90;;;;;;5073525;28;20090;-34
2023/01/20 12:25:20;;;;;;;12.25;5.47;;;2.50;99.90;;;;;;5074910;28;20481;-35
2023/01/20 12:27:55;;;;;;;10.20;5.13;;;2.50;99.90;;;;;;5074871;28;20033;-37
2023/01/20 12:30:49;;;;;;;15.18;6.72;;;2.50;99.90;;;;;;5074755;28;20453;-37
2023/01/20 12:33:21;;;;;;;10.48;5.93;;;2.60;99.90;;;;;;5074616;28;20435;-39
2023/01/20 12:36:04;;;;;;;11.35;5.88;;;2.50;99.90;;;;;;5073332;28;20039;-38
2023/01/20 12:38:59;;;;;;;11.32;5.20;;;2.50;99.90;;;;;;5074667;28;20485;-37
2023/01/20 12:41:52;;;;;;;9.70;5.20;;;2.50;99.90;;;;;;5043564;28;20099;-38
2023/01/20 12:44:33;;;;;;;10.60;4.78;;;2.50;99.90;;;;;;5074521;28;20396;-39
2023/01/20 12:47:17;;;;;;;9.77;5.22;;;2.60;99.90;;;;;;5074361;28;20427;-39
2023/01/20 12:50:10;;;;;;;8.23;5.13;;;2.60;99.90;;;;;;5073473;28;20036;-38
2023/01/20 12:53:11;;;;;;;10.25;4.70;;;2.60;99.90;;;;;;5063315;28;20615;-37
2023/01/20 12:56:01;;;;;;;11.02;5.50;;;2.70;99.90;;;;;;5059991;28;20560;-36
2023/01/20 12:58:43;;;;;;;12.95;6.40;;;2.70;99.90;;;;;;5074179;28;20031;-36
2023/01/20 13:01:24;;;;;;;7.82;4.13;;;2.80;99.90;;;;;;5074443;28;20469;-35
2023/01/20 13:04:11;;;;;;;13.07;5.70;;;2.70;99.90;;;;;;5074025;28;20033;-49
2023/01/20 13:06:55;;;;;;;11.20;6.30;;;2.80;99.90;;;;;;5073189;28;20064;-40
2023/01/20 13:09:44;;;;;;;13.60;5.90;;;2.80;99.90;;;;;;5072440;28;20476;-40
2023/01/20 13:12:12;;;;;;;14.35;6.80;;;2.70;99.90;;;;;;5073910;28;20031;-39
2023/01/20 13:14:43;;;;;;;;;;;2.60;99.90;;;;;;5073158;28;20474;-40
2023/01/20 13:17:36;;;;;;;16.63;7.72;;;2.60;99.90;;;;;;5073762;28;19912;-37
2023/01/20 13:20:03;;;;;;;16.75;7.25;;;2.60;99.90;;;;;;5073717;28;20111;-40
2023/01/20 13:22:30;;;;;;;14.73;7.75;;;2.60;99.90;;;;;;5072210;28;20491;-37